Time;durP1;ratioP1;P1;durP2;ratioP2;P2;SDS_P1;SDS_P2;PMS_P1;PMS_P2;Temp;Humidity;BMP_temperature;BMP_pressure;BME280_temperature;BME280_humidity;BME280_pressure;Samples;Min_cycle;Max_cycle;Signal;HPM_P1;HPM_P2
2022/03/16 02:34:59;;;;;;;79.32;34.80;;;4.60;99.90;;;;;;6329592;22;20095;-84
2022/03/16 02:37:24;;;;;;;72.82;34.67;;;4.80;99.90;;;;;;6302887;22;20015;-86
2022/03/16 02:40:10;;;;;;;80.60;35.13;;;5.00;99.90;;;;;;6332816;22;20551;-86
2022/03/16 02:43:11;;;;;;;;;;;;;;;;;;;;;
2022/03/16 02:46:48;;;;;;;98.70;39.22;;;4.60;99.90;;;;;;6219238;22;20019;-85
2022/03/16 02:49:31;;;;;;;76.15;34.45;;;4.50;99.90;;;;;;6191506;22;20459;-84
2022/03/16 02:52:47;;;;;;;110.07;37.70;;;5.50;99.90;;;;;;6331869;22;20098;-85
2022/03/16 02:55:15;;;;;;;80.32;36.17;;;4.90;99.90;;;;;;6224363;22;20042;-85
2022/03/16 02:57:41;;;;;;;76.82;33.47;;;4.50;99.90;;;;;;6331709;22;20618;-85
2022/03/16 03:00:26;;;;;;;93.30;37.72;;;4.40;99.90;;;;;;6303267;22;20015;-85
2022/03/16 03:02:58;;;;;;;83.65;35.10;;;3.00;99.90;;;;;;6303487;22;20061;-85
2022/03/16 03:05:27;;;;;;;;;;;5.80;99.90;;;;;;6302465;22;20050;-85
2022/03/16 03:07:55;;;;;;;82.97;35.33;;;4.50;99.90;;;;;;6332135;22;19920;-85
2022/03/16 03:10:27;;;;;;;104.90;39.33;;;4.40;99.90;;;;;;6331110;22;20060;-85
2022/03/16 03:12:53;;;;;;;96.22;37.65;;;4.40;99.90;;;;;;6331996;22;20452;-85
2022/03/16 03:15:35;;;;;;;101.07;40.85;;;4.40;99.90;;;;;;6303712;22;20358;-85
2022/03/16 03:18:19;;;;;;;77.90;36.08;;;4.50;99.90;;;;;;6331231;22;20015;-85
2022/03/16 03:20:54;;;;;;;100.65;39.67;;;3.50;99.90;;;;;;6330250;22;20533;-85
2022/03/16 03:23:32;;;;;;;68.63;33.13;;;4.40;99.90;;;;;;6305477;22;20033;-85
2022/03/16 03:26:21;;;;;;;92.57;38.13;;;3.50;99.90;;;;;;6333895;22;20019;-85
2022/03/16 03:29:14;;;;;;;76.28;35.88;;;5.00;99.90;;;;;;6332214;22;20425;-85
2022/03/16 03:32:09;;;;;;;114.38;38.85;;;5.00;99.90;;;;;;6305118;22;20022;-86
2022/03/16 03:34:45;;;;;;;;;;;;;;;;;;;;;
2022/03/16 03:37:45;;;;;;;87.32;35.45;;;4.10;99.90;;;;;;6295951;22;20449;-86
2022/03/16 03:40:17;;;;;;;78.32;35.22;;;2.70;99.90;;;;;;6333787;22;20079;-85
2022/03/16 03:42:55;;;;;;;79.07;34.17;;;4.90;99.90;;;;;;6305893;22;20014;-85
2022/03/16 03:45:20;;;;;;;70.38;31.15;;;4.10;99.90;;;;;;6304957;22;20025;-84
2022/03/16 03:47:48;;;;;;;75.78;32.35;;;5.80;99.90;;;;;;6332356;22;20699;-84
2022/03/16 03:50:23;;;;;;;67.35;32.65;;;4.10;99.90;;;;;;6303796;22;20109;-85
2022/03/16 03:52:49;;;;;;;68.40;32.03;;;3.90;99.90;;;;;;6304210;22;20037;-85
2022/03/16 03:55:30;;;;;;;67.78;30.95;;;4.10;99.90;;;;;;6304908;22;20034;-83
2022/03/16 03:57:59;;;;;;;89.88;34.33;;;6.20;99.90;;;;;;6304642;22;20019;-85
2022/03/16 04:00:25;;;;;;;70.88;32.78;;;4.50;99.90;;;;;;6304650;22;20052;-85
2022/03/16 04:02:56;;;;;;;72.32;33.42;;;3.90;99.90;;;;;;6304216;22;20011;-84
2022/03/16 04:05:22;;;;;;;;;;;3.90;99.90;;;;;;6333127;22;20022;-85
2022/03/16 04:07:48;;;;;;;78.22;32.90;;;3.90;99.90;;;;;;6304205;22;19914;-85
2022/03/16 04:10:17;;;;;;;85.20;35.05;;;3.80;99.90;;;;;;6305000;22;20033;-85
2022/03/16 04:13:00;;;;;;;99.47;37.75;;;3.70;99.90;;;;;;6304158;22;20072;-85
2022/03/16 04:15:26;;;;;;;78.53;33.50;;;4.20;99.90;;;;;;6305754;22;20030;-85
2022/03/16 04:17:51;;;;;;;87.55;34.25;;;3.70;99.90;;;;;;6304882;22;20011;-85
2022/03/16 04:20:25;;;;;;;90.25;34.90;;;4.20;99.90;;;;;;6302959;22;20441;-86
2022/03/16 04:23:03;;;;;;;85.95;32.55;;;3.70;99.90;;;;;;6282090;22;20118;-85
2022/03/16 04:25:31;;;;;;;84.60;33.15;;;4.00;99.90;;;;;;6304807;22;20090;-86
2022/03/16 04:27:57;;;;;;;94.65;36.28;;;5.10;99.90;;;;;;6331845;22;20049;-86
2022/03/16 04:30:25;;;;;;;78.78;33.00;;;3.70;99.90;;;;;;6304915;22;20011;-86
2022/03/16 04:32:52;;;;;;;86.78;35.97;;;3.50;99.90;;;;;;6305454;22;20022;-85
2022/03/16 04:35:43;;;;;;;95.35;36.30;;;4.50;99.90;;;;;;6303643;22;20019;-86
2022/03/16 04:38:30;;;;;;;97.30;36.63;;;3.90;99.90;;;;;;6303497;22;20132;-86
2022/03/16 04:41:10;;;;;;;116.95;39.65;;;3.40;99.90;;;;;;6302137;22;20018;-85
2022/03/16 04:43:41;;;;;;;95.88;38.72;;;4.40;99.90;;;;;;6333472;22;20072;-85
2022/03/16 04:46:22;;;;;;;84.88;33.22;;;3.60;99.90;;;;;;6304516;22;20014;-87
2022/03/16 04:48:54;;;;;;;103.53;38.88;;;3.60;99.90;;;;;;6305325;22;20011;-86
2022/03/16 04:51:19;;;;;;;95.25;36.97;;;3.90;99.90;;;;;;6333448;22;20018;-85
2022/03/16 04:53:45;;;;;;;104.15;39.55;;;4.50;99.90;;;;;;6305141;22;20015;-86
2022/03/16 04:56:23;;;;;;;99.78;38.45;;;3.60;99.90;;;;;;6303049;22;20011;-85
2022/03/16 05:01:34;;;;;;;89.05;37.08;;;3.30;99.90;;;;;;6331052;22;20022;-86
2022/03/16 05:07:32;;;;;;;84.07;35.22;;;2.40;99.90;;;;;;6210892;23;20150;-86
2022/03/16 05:10:21;;;;;;;;;;;;;;;;;;;;;
2022/03/16 05:13:18;;;;;;;100.80;36.15;;;3.60;99.90;;;;;;6208517;23;20032;-86
2022/03/16 05:16:06;;;;;;;94.57;37.08;;;3.90;99.90;;;;;;6210567;23;20191;-86
2022/03/16 05:18:52;;;;;;;102.10;36.67;;;3.60;99.90;;;;;;6234710;23;20366;-87
2022/03/16 05:21:43;;;;;;;94.03;36.75;;;4.70;99.90;;;;;;6235605;23;20110;-87
2022/03/16 05:24:15;;;;;;;87.13;33.85;;;3.70;99.90;;;;;;6209357;23;20233;-87
2022/03/16 05:26:56;;;;;;;94.05;37.55;;;3.60;99.90;;;;;;6235352;23;20024;-87
2022/03/16 05:29:36;;;;;;;109.15;39.47;;;4.50;99.90;;;;;;6234232;23;20044;-86
2022/03/16 05:32:14;;;;;;;96.38;36.38;;;3.70;99.90;;;;;;6209577;23;20414;-86
2022/03/16 05:35:00;;;;;;;87.00;35.60;;;3.80;99.90;;;;;;6210122;23;20016;-87
2022/03/16 05:37:47;;;;;;;111.43;39.80;;;4.10;99.90;;;;;;6265128;22;20079;-86
2022/03/16 05:40:31;;;;;;;92.63;38.50;;;3.70;99.90;;;;;;6331563;22;20686;-86
2022/03/16 05:43:02;;;;;;;105.85;38.63;;;3.60;99.90;;;;;;6304093;22;20015;-86
2022/03/16 05:45:52;;;;;;;111.28;39.25;;;3.90;99.90;;;;;;6303013;22;20095;-87
2022/03/16 05:48:17;;;;;;;88.07;35.83;;;4.10;99.90;;;;;;6334375;22;20018;-87
2022/03/16 05:50:45;;;;;;;100.22;39.50;;;3.80;99.90;;;;;;6304372;22;20019;-85
2022/03/16 05:53:12;;;;;;;100.45;39.40;;;3.90;99.90;;;;;;6301522;22;20045;-86
2022/03/16 05:55:38;;;;;;;91.90;33.00;;;3.90;99.90;;;;;;6331449;22;20021;-86
2022/03/16 05:58:04;;;;;;;107.15;38.70;;;3.90;99.90;;;;;;6332095;22;20007;-87
2022/03/16 06:00:35;;;;;;;87.45;39.95;;;3.90;99.90;;;;;;6282610;22;1115345;-87
2022/03/16 06:03:13;;;;;;;92.47;40.85;;;3.10;99.90;;;;;;6340399;22;20113;-88
2022/03/16 06:05:42;;;;;;;113.18;41.60;;;5.40;99.90;;;;;;6283828;22;20022;-88
2022/03/16 06:08:17;;;;;;;140.73;45.13;;;4.80;99.90;;;;;;6307871;22;20126;-87
2022/03/16 06:10:52;;;;;;;123.88;42.25;;;4.00;99.90;;;;;;6308128;22;20014;-88
2022/03/16 06:13:19;;;;;;;103.32;39.88;;;4.00;99.90;;;;;;6306098;22;20014;-89
2022/03/16 06:15:45;;;;;;;114.22;40.17;;;4.70;99.90;;;;;;6337633;22;20030;-86
2022/03/16 06:18:23;;;;;;;105.60;41.33;;;4.10;99.90;;;;;;6310051;22;20014;-89
2022/03/16 06:20:52;;;;;;;111.47;43.25;;;4.10;99.90;;;;;;6308442;22;20083;-86
2022/03/16 06:23:18;;;;;;;117.78;43.97;;;4.20;99.90;;;;;;6336367;22;20014;-87
2022/03/16 06:25:49;;;;;;;109.05;40.78;;;5.40;99.90;;;;;;6314563;22;20105;-86
2022/03/16 06:28:15;;;;;;;89.00;38.63;;;4.00;99.90;;;;;;6320473;22;20014;-87
2022/03/16 06:30:44;;;;;;;101.00;38.42;;;4.80;99.90;;;;;;6322437;22;20026;-89
2022/03/16 06:33:09;;;;;;;91.07;36.47;;;4.40;99.90;;;;;;6327103;22;20018;-88
2022/03/16 06:35:42;;;;;;;95.78;34.72;;;4.20;99.90;;;;;;6339120;22;20011;-87
2022/03/16 06:38:08;;;;;;;98.47;39.92;;;4.20;99.90;;;;;;6335043;22;20094;-87
2022/03/16 06:40:34;;;;;;;78.50;35.10;;;4.20;99.90;;;;;;6335524;22;20046;-87
2022/03/16 06:43:00;;;;;;;102.53;40.38;;;6.40;99.90;;;;;;6304926;22;20011;-87
2022/03/16 06:45:28;;;;;;;107.07;39.20;;;4.90;99.90;;;;;;6304970;22;20065;-86
2022/03/16 06:47:55;;;;;;;88.60;35.65;;;4.20;99.90;;;;;;6334793;22;20446;-88
2022/03/16 06:50:34;;;;;;;90.63;38.05;;;4.20;99.90;;;;;;6332813;22;20018;-87
2022/03/16 06:53:00;;;;;;;92.60;37.47;;;4.20;99.90;;;;;;6304512;22;20150;-86
2022/03/16 06:55:30;;;;;;;98.53;39.28;;;2.60;99.90;;;;;;6304275;22;20870;-89
2022/03/16 06:58:11;;;;;;;107.03;41.85;;;4.30;99.90;;;;;;6335169;22;20048;-88
2022/03/16 07:00:37;;;;;;;98.82;39.28;;;4.40;99.90;;;;;;6335077;22;20026;-87
2022/03/16 07:03:06;;;;;;;90.13;39.20;;;4.60;99.90;;;;;;6334989;22;20014;-87
2022/03/16 07:05:34;;;;;;;84.07;38.08;;;5.00;99.90;;;;;;6335963;22;20022;-87
2022/03/16 07:08:02;;;;;;;94.35;37.72;;;4.40;99.90;;;;;;6334119;22;20018;-87
2022/03/16 07:10:29;;;;;;;87.45;38.03;;;5.10;99.90;;;;;;6333734;22;20046;-86
2022/03/16 07:12:55;;;;;;;80.60;37.10;;;4.50;99.90;;;;;;6334124;22;20083;-89
2022/03/16 07:15:22;;;;;;;84.38;36.92;;;4.60;99.90;;;;;;6335106;22;20014;-86
2022/03/16 07:17:48;;;;;;;80.97;37.00;;;4.50;99.90;;;;;;6313332;22;20049;-87
2022/03/16 07:20:15;;;;;;;82.70;36.10;;;4.70;99.90;;;;;;6309429;22;20018;-89
2022/03/16 07:23:00;;;;;;;76.70;33.00;;;6.60;99.90;;;;;;6306713;22;20315;-88
2022/03/16 07:25:32;;;;;;;77.63;36.65;;;4.40;99.90;;;;;;6334506;22;20014;-87
2022/03/16 07:28:07;;;;;;;83.00;36.53;;;4.70;99.90;;;;;;6305754;22;20022;-85
2022/03/16 07:30:38;;;;;;;90.80;38.47;;;4.80;99.90;;;;;;6304551;22;20099;-85
2022/03/16 07:33:05;;;;;;;73.93;34.45;;;4.80;99.90;;;;;;6334179;22;20015;-86
2022/03/16 07:35:34;;;;;;;75.68;37.08;;;4.60;99.90;;;;;;6333442;22;20029;-86
2022/03/16 07:38:02;;;;;;;75.50;34.03;;;6.40;99.90;;;;;;6325004;22;20091;-86
2022/03/16 07:40:30;;;;;;;82.75;35.72;;;4.90;99.90;;;;;;6306304;22;20086;-84
2022/03/16 07:42:56;;;;;;;79.30;37.85;;;5.00;99.90;;;;;;6306099;22;20035;-85
2022/03/16 07:45:22;;;;;;;78.20;36.78;;;5.10;99.90;;;;;;6333487;22;20022;-85
2022/03/16 07:47:50;;;;;;;78.78;36.45;;;5.20;99.90;;;;;;6333749;22;20074;-85
2022/03/16 07:50:27;;;;;;;73.88;37.97;;;5.30;99.90;;;;;;6334880;22;20014;-84
2022/03/16 07:52:53;;;;;;;67.07;32.80;;;6.10;99.90;;;;;;6333157;22;20015;-87
2022/03/16 07:55:30;;;;;;;64.75;33.40;;;5.40;99.90;;;;;;6334318;22;20498;-86
2022/03/16 07:57:56;;;;;;;62.65;33.00;;;5.40;99.90;;;;;;6306690;22;20014;-87
2022/03/16 08:00:23;;;;;;;56.83;33.72;;;5.50;99.90;;;;;;6336044;22;20314;-87
2022/03/16 08:02:48;;;;;;;70.35;36.22;;;5.70;99.90;;;;;;6312324;22;20053;-88
2022/03/16 08:05:15;;;;;;;64.13;33.70;;;7.00;99.90;;;;;;6313933;22;20023;-86
2022/03/16 08:07:41;;;;;;;75.25;35.90;;;5.80;99.90;;;;;;6318560;22;20031;-89
2022/03/16 08:10:08;;;;;;;58.75;33.33;;;5.90;99.90;;;;;;6321279;22;20011;-87
2022/03/16 08:12:34;;;;;;;56.40;33.22;;;6.00;99.90;;;;;;6354547;22;20025;-88
2022/03/16 08:15:02;;;;;;;64.40;33.63;;;6.10;99.90;;;;;;6313824;22;20312;-93
2022/03/16 08:17:34;;;;;;;59.40;32.15;;;6.10;99.90;;;;;;6316578;22;20030;-88
2022/03/16 08:20:00;;;;;;;60.10;31.27;;;6.70;99.90;;;;;;6310816;22;20072;-90
2022/03/16 08:22:30;;;;;;;57.38;31.40;;;6.40;99.90;;;;;;6308423;22;20451;-87
2022/03/16 08:24:57;;;;;;;60.30;31.37;;;6.40;99.90;;;;;;6309671;22;20019;-91
2022/03/16 08:27:23;;;;;;;52.47;29.45;;;6.90;99.90;;;;;;6335633;22;20030;-90
2022/03/16 08:30:01;;;;;;;53.53;28.60;;;6.60;99.90;;;;;;6336380;22;20011;-89
2022/03/16 08:32:27;;;;;;;51.03;29.15;;;6.60;99.90;;;;;;6309304;22;20018;-91
2022/03/16 08:34:52;;;;;;;48.35;30.08;;;7.00;99.90;;;;;;6337144;22;20414;-86
2022/03/16 08:37:19;;;;;;;52.90;29.92;;;6.80;99.90;;;;;;6339346;22;20018;-86
2022/03/16 08:39:46;;;;;;;50.55;29.25;;;7.60;99.90;;;;;;6337691;22;20102;-90
2022/03/16 08:42:12;;;;;;;48.58;30.05;;;7.90;99.90;;;;;;6308050;22;20019;-94
2022/03/16 08:44:39;;;;;;;50.13;28.35;;;7.10;99.90;;;;;;6312477;22;20026;-88
2022/03/16 08:47:05;;;;;;;46.97;27.50;;;7.90;99.90;;;;;;6307773;22;20022;-85
2022/03/16 08:49:47;;;;;;;48.70;28.27;;;7.40;99.90;;;;;;6307119;22;20015;-86
2022/03/16 08:52:13;;;;;;;42.90;27.13;;;6.40;99.90;;;;;;6307338;22;20023;-86
2022/03/16 08:54:40;;;;;;;48.10;27.10;;;7.90;99.90;;;;;;6334703;22;20023;-91
2022/03/16 08:57:09;;;;;;;41.47;26.33;;;7.70;99.90;;;;;;6334609;22;20064;-86
2022/03/16 08:59:38;;;;;;;;;;;7.80;99.90;;;;;;6335507;22;20376;-85
2022/03/16 09:02:15;;;;;;;47.58;25.13;;;7.90;99.90;;;;;;6333985;22;19921;-88
2022/03/16 09:04:47;;;;;;;38.90;23.58;;;8.00;99.90;;;;;;6308843;22;20011;-89
2022/03/16 09:07:13;;;;;;;45.95;23.48;;;8.10;99.90;;;;;;6307067;22;20014;-89
2022/03/16 09:09:40;;;;;;;36.45;23.70;;;8.20;99.90;;;;;;6334782;22;20023;-87
2022/03/16 09:12:23;;;;;;;39.55;23.25;;;8.30;99.90;;;;;;6308545;22;20010;-94
2022/03/16 09:14:51;;;;;;;35.95;23.38;;;8.40;99.90;;;;;;6307471;22;20014;-87
2022/03/16 09:17:20;;;;;;;33.15;22.80;;;8.60;99.90;;;;;;6334192;22;20022;-87
2022/03/16 09:19:46;;;;;;;43.05;23.42;;;8.80;99.90;;;;;;6333253;22;20010;-86
2022/03/16 09:22:12;;;;;;;35.85;21.52;;;8.80;99.90;;;;;;6332950;22;20085;-90
2022/03/16 09:24:40;;;;;;;33.97;21.27;;;8.90;99.90;;;;;;6334939;22;20017;-83
2022/03/16 09:27:06;;;;;;;31.83;19.85;;;9.10;99.90;;;;;;6305275;22;20098;-87
2022/03/16 09:29:32;;;;;;;39.28;21.60;;;9.30;99.90;;;;;;6338577;22;20050;-87
2022/03/16 09:31:58;;;;;;;33.30;20.65;;;9.40;99.90;;;;;;6333808;22;20011;-87
2022/03/16 09:34:27;;;;;;;28.48;19.33;;;10.00;99.90;;;;;;6305535;22;20011;-87
2022/03/16 09:36:53;;;;;;;28.83;19.95;;;9.70;99.90;;;;;;6338560;22;20102;-86
2022/03/16 09:39:18;;;;;;;54.15;33.03;;;11.20;99.90;;;;;;6310924;22;20367;-84
2022/03/16 09:41:44;;;;;;;32.22;20.25;;;10.10;99.90;;;;;;6339610;22;20068;-87
2022/03/16 09:44:30;;;;;;;33.03;21.25;;;10.30;99.90;;;;;;6337927;22;20025;-89
2022/03/16 09:46:57;;;;;;;38.88;20.65;;;10.80;99.90;;;;;;6335602;22;20387;-85
2022/03/16 09:49:26;;;;;;;42.38;21.38;;;11.00;99.90;;;;;;6310206;22;20184;-84
2022/03/16 09:52:07;;;;;;;33.50;21.20;;;10.30;99.90;;;;;;6338963;22;20046;-88
2022/03/16 09:54:36;;;;;;;30.83;20.48;;;10.40;99.90;;;;;;6338101;22;20107;-84
2022/03/16 09:57:11;;;;;;;35.60;20.17;;;10.60;99.90;;;;;;6339745;22;20050;-84
2022/03/16 09:59:38;;;;;;;32.88;19.45;;;10.60;99.90;;;;;;6310958;22;20018;-85
2022/03/16 10:02:06;;;;;;;32.75;19.88;;;11.10;99.90;;;;;;6310918;22;20046;-84
2022/03/16 10:04:36;;;;;;;28.50;18.23;;;10.40;99.90;;;;;;6339063;22;20026;-86
2022/03/16 10:07:04;;;;;;;30.20;17.00;;;11.20;99.90;;;;;;6310317;22;20022;-88
2022/03/16 10:15:13;;;;;;;24.52;15.00;;;11.50;99.90;;;;;;6336960;22;20387;-86
2022/03/16 10:18:02;;;;;;;22.45;14.80;;;11.80;99.90;;;;;;6337425;22;20093;-89
2022/03/16 10:20:41;;;;;;;22.00;13.35;;;12.20;99.90;;;;;;6307857;22;20019;-88
2022/03/16 10:23:14;;;;;;;21.95;13.63;;;12.00;99.90;;;;;;6304819;22;20015;-88
2022/03/16 10:25:42;;;;;;;21.08;13.20;;;12.90;99.90;;;;;;6305910;22;20098;-85
2022/03/16 10:28:32;;;;;;;19.27;12.57;;;12.30;99.90;;;;;;6306294;22;20014;-88
2022/03/16 10:31:20;;;;;;;20.23;12.55;;;12.30;99.90;;;;;;6306674;22;20022;-87
2022/03/16 10:33:53;;;;;;;21.00;12.88;;;12.90;99.90;;;;;;6306482;22;20015;-87
2022/03/16 10:36:25;;;;;;;20.52;11.57;;;13.10;99.90;;;;;;6307004;22;20017;-92
2022/03/16 10:39:08;;;;;;;19.02;11.52;;;13.50;99.90;;;;;;6334334;22;20018;-89
2022/03/16 10:47:20;;;;;;;20.02;12.75;;;13.70;99.90;;;;;;6339014;22;20514;-92
2022/03/16 10:50:07;;;;;;;20.00;11.98;;;12.30;99.90;;;;;;6310307;22;20087;-93
2022/03/16 10:52:44;;;;;;;19.00;13.45;;;13.20;99.90;;;;;;6338085;22;20174;-90
2022/03/16 10:55:23;;;;;;;19.20;12.73;;;13.30;99.90;;;;;;6307800;22;20412;-87
2022/03/16 10:57:50;;;;;;;18.40;12.48;;;13.40;99.90;;;;;;6344325;22;20019;-92
2022/03/16 11:00:26;;;;;;;21.98;12.30;;;13.50;99.90;;;;;;6340160;22;20018;-91
2022/03/16 11:03:41;;;;;;;23.67;13.60;;;13.50;99.90;;;;;;6335498;22;20022;-95
2022/03/16 11:06:23;;;;;;;21.33;13.10;;;13.30;98.60;;;;;;6333794;22;20102;-91
2022/03/16 11:08:54;;;;;;;19.08;11.88;;;13.30;99.90;;;;;;6335958;22;20099;-90
2022/03/16 11:14:17;;;;;;;17.45;10.60;;;13.40;99.90;;;;;;6306712;22;20256;-92
2022/03/16 11:16:45;;;;;;;16.80;10.38;;;13.60;99.90;;;;;;6335582;22;20082;-92
2022/03/16 11:19:14;;;;;;;19.73;11.15;;;13.70;97.90;;;;;;6308451;22;20103;-90
2022/03/16 11:22:29;;;;;;;15.73;10.23;;;14.30;97.30;;;;;;6335883;22;20060;-93
2022/03/16 11:25:01;;;;;;;16.67;10.70;;;13.90;97.00;;;;;;6154660;23;20025;-86
2022/03/16 11:27:46;;;;;;;17.95;11.35;;;14.70;95.60;;;;;;6335649;22;20391;-91
2022/03/16 11:30:33;;;;;;;16.35;11.25;;;13.50;93.70;;;;;;6338269;22;20030;-91
2022/03/16 11:33:04;;;;;;;17.33;12.57;;;14.00;95.90;;;;;;6309318;22;20025;-88
2022/03/16 11:35:45;;;;;;;17.65;11.35;;;14.00;94.40;;;;;;6337813;22;20102;-89
2022/03/16 11:38:14;;;;;;;16.70;11.35;;;14.50;94.60;;;;;;6308672;22;20057;-87
2022/03/16 11:40:45;;;;;;;18.80;11.05;;;14.00;94.90;;;;;;6319040;22;20022;-90
2022/03/16 11:43:28;;;;;;;21.02;11.60;;;14.70;94.80;;;;;;6342732;22;20042;-83
2022/03/16 11:45:57;;;;;;;18.88;11.85;;;14.20;92.70;;;;;;6315346;22;20023;-93
2022/03/16 11:48:31;;;;;;;18.58;10.15;;;14.80;92.60;;;;;;6314801;22;20023;-87
2022/03/16 11:51:14;;;;;;;20.77;11.35;;;14.10;90.10;;;;;;6333398;22;20023;-87
2022/03/16 11:53:46;;;;;;;16.88;9.93;;;14.10;90.90;;;;;;6335147;22;20046;-88
2022/03/16 11:56:45;;;;;;;18.40;10.35;;;14.30;92.50;;;;;;6308040;22;20053;-93
2022/03/16 11:59:31;;;;;;;16.83;10.45;;;14.40;91.00;;;;;;6338373;22;20011;-89
2022/03/16 12:02:30;;;;;;;16.60;9.80;;;14.60;90.70;;;;;;6339100;22;20018;-91
2022/03/16 12:05:00;;;;;;;18.08;10.25;;;15.00;92.20;;;;;;6252209;22;20015;-88
2022/03/16 12:07:33;;;;;;;15.35;9.90;;;14.80;92.30;;;;;;6307521;22;20049;-88
2022/03/16 12:10:11;;;;;;;16.33;9.68;;;14.90;87.50;;;;;;6311041;22;20115;-90
2022/03/16 12:15:52;;;;;;;18.48;10.48;;;15.00;84.40;;;;;;6246389;22;20046;-90
2022/03/16 12:18:19;;;;;;;17.42;10.27;;;15.00;79.30;;;;;;6286839;22;20377;-96
2022/03/16 12:21:06;;;;;;;18.40;10.65;;;15.00;83.70;;;;;;6339988;22;20084;-95
2022/03/16 12:25:08;;;;;;;14.95;10.55;;;15.00;80.00;;;;;;6335523;22;20018;-89
2022/03/16 12:29:48;;;;;;;19.40;10.02;;;15.10;79.20;;;;;;6307433;22;20019;-88
2022/03/16 12:32:20;;;;;;;16.08;9.95;;;15.20;79.50;;;;;;6336090;22;20015;-91
2022/03/16 12:34:50;;;;;;;19.92;10.02;;;15.30;78.40;;;;;;6308639;22;20019;-88
2022/03/16 12:37:16;;;;;;;19.20;10.00;;;15.30;76.90;;;;;;6334997;22;20025;-92
2022/03/16 12:39:45;;;;;;;14.15;9.10;;;15.40;77.50;;;;;;6309540;22;20015;-94
2022/03/16 12:42:31;;;;;;;14.98;10.05;;;15.40;73.90;;;;;;6312320;22;20014;-93
2022/03/16 12:45:04;;;;;;;14.57;10.00;;;15.40;73.80;;;;;;6310818;22;20018;-96
2022/03/16 12:47:34;;;;;;;13.82;8.70;;;15.40;70.90;;;;;;6308645;22;20101;-92
2022/03/16 12:51:47;;;;;;;13.02;7.82;;;15.40;66.20;;;;;;5127031;27;20445;-86
2022/03/16 12:54:26;;;;;;;17.70;8.75;;;15.40;71.40;;;;;;5110369;27;20047;-85
2022/03/16 12:57:08;;;;;;;14.77;9.27;;;15.60;70.30;;;;;;5105241;28;20058;-85
2022/03/16 12:59:48;;;;;;;12.95;8.93;;;15.90;70.10;;;;;;5106578;28;20039;-85
2022/03/16 13:02:19;;;;;;;13.48;9.05;;;16.20;70.00;;;;;;5106594;28;20518;-86
2022/03/16 13:04:58;;;;;;;19.67;10.18;;;16.50;68.30;;;;;;5123018;28;20039;-83
2022/03/16 13:07:25;;;;;;;15.98;9.70;;;16.40;68.10;;;;;;5105337;28;20497;-90
2022/03/16 13:09:52;;;;;;;14.73;9.95;;;16.30;67.80;;;;;;5113953;28;20040;-84
2022/03/16 13:12:28;;;;;;;19.85;9.02;;;16.10;69.00;;;;;;5103622;28;20453;-85
2022/03/16 13:14:57;;;;;;;14.13;9.07;;;16.00;68.60;;;;;;5104250;28;20036;-89
2022/03/16 13:17:24;;;;;;;15.35;10.07;;;15.80;69.50;;;;;;5104757;28;20063;-87
2022/03/16 13:19:54;;;;;;;14.70;9.38;;;15.70;69.20;;;;;;5112717;28;20216;-87
2022/03/16 13:22:22;;;;;;;13.07;9.63;;;15.60;68.20;;;;;;5101686;28;20084;-91
2022/03/16 13:24:50;;;;;;;13.55;8.90;;;15.80;68.90;;;;;;5109229;28;20139;-86
2022/03/16 13:27:21;;;;;;;12.77;8.52;;;15.80;69.40;;;;;;5107971;28;20071;-91
2022/03/16 13:30:12;;;;;;;14.85;9.55;;;15.40;69.10;;;;;;5106105;28;20123;-86
2022/03/16 13:32:39;;;;;;;16.08;9.45;;;15.40;68.90;;;;;;5100076;28;20194;-94
2022/03/16 13:35:12;;;;;;;20.10;10.45;;;15.50;69.20;;;;;;5103962;28;20050;-87
2022/03/16 13:37:48;;;;;;;14.40;9.50;;;15.50;68.50;;;;;;5111105;28;20044;-89
2022/03/16 13:40:18;;;;;;;18.23;9.90;;;15.40;68.40;;;;;;5107100;27;20477;-87
2022/03/16 13:42:46;;;;;;;15.63;10.07;;;15.30;69.50;;;;;;5105722;28;20590;-90
2022/03/16 13:45:23;;;;;;;16.23;10.48;;;15.20;69.40;;;;;;5104234;28;20452;-88
2022/03/16 13:48:12;;;;;;;17.92;11.52;;;15.30;68.80;;;;;;5105983;28;20129;-92
2022/03/16 13:50:49;;;;;;;16.33;10.38;;;15.00;70.00;;;;;;5087119;28;20411;-87
2022/03/16 13:53:25;;;;;;;17.05;10.50;;;14.80;71.00;;;;;;5100769;28;20039;-88
2022/03/16 13:55:53;;;;;;;16.92;9.65;;;14.70;71.00;;;;;;5103230;28;20096;-88
2022/03/16 13:58:24;;;;;;;17.67;9.43;;;14.50;71.40;;;;;;5107186;28;20040;-90
2022/03/16 14:00:55;;;;;;;15.32;9.40;;;14.40;71.00;;;;;;5115854;28;20044;-93
2022/03/16 14:03:23;;;;;;;15.00;9.27;;;14.40;71.20;;;;;;5099927;28;20088;-88
2022/03/16 14:05:48;;;;;;;15.43;9.82;;;14.40;71.30;;;;;;5093648;28;20036;-89
2022/03/16 14:08:15;;;;;;;14.10;9.77;;;14.50;70.90;;;;;;5092707;28;20047;-86
2022/03/16 14:10:41;;;;;;;14.57;9.93;;;14.50;71.00;;;;;;5091806;28;20071;-90
2022/03/16 14:13:09;;;;;;;16.38;10.30;;;14.60;71.20;;;;;;5088389;28;20072;-89
2022/03/16 14:15:35;;;;;;;17.15;10.18;;;14.40;72.10;;;;;;5092356;28;20059;-89
2022/03/16 14:18:08;;;;;;;16.30;10.88;;;14.70;73.10;;;;;;5090883;28;20040;-89
2022/03/16 14:20:36;;;;;;;14.77;10.45;;;14.30;73.30;;;;;;5101948;28;20430;-87
2022/03/16 14:23:03;;;;;;;18.08;10.10;;;14.30;73.60;;;;;;5093087;28;20452;-90
2022/03/16 14:25:33;;;;;;;18.60;10.93;;;14.30;74.20;;;;;;5110063;28;20051;-89
2022/03/16 14:28:00;;;;;;;22.52;11.68;;;14.20;74.40;;;;;;5105254;28;20491;-88
2022/03/16 14:30:29;;;;;;;18.40;11.80;;;14.90;75.50;;;;;;5101951;28;20106;-91
2022/03/16 14:33:00;;;;;;;22.23;12.73;;;14.20;75.70;;;;;;5097078;28;20041;-89
2022/03/16 14:35:29;;;;;;;22.65;12.82;;;14.20;75.70;;;;;;5110774;28;20050;-86
2022/03/16 14:38:15;;;;;;;21.00;12.60;;;14.40;77.40;;;;;;5091463;28;20118;-86
2022/03/16 14:40:41;;;;;;;24.00;13.82;;;14.00;77.40;;;;;;5092752;28;20028;-83
2022/03/16 14:43:15;;;;;;;22.50;13.98;;;13.90;78.90;;;;;;5091322;28;20138;-90
2022/03/16 14:45:50;;;;;;;20.27;12.93;;;13.80;79.40;;;;;;5095583;28;20039;-88
2022/03/16 14:48:16;;;;;;;22.70;13.40;;;13.90;80.30;;;;;;5091287;28;20044;-91
2022/03/16 14:50:44;;;;;;;21.85;13.35;;;13.70;82.60;;;;;;5093315;28;20097;-89
2022/03/16 14:53:10;;;;;;;23.88;13.30;;;13.70;83.80;;;;;;5076008;28;20131;-88
2022/03/16 14:55:36;;;;;;;21.83;13.50;;;14.20;85.40;;;;;;5086271;28;20132;-89
2022/03/16 14:58:05;;;;;;;23.10;13.52;;;13.60;86.40;;;;;;5092103;28;20036;-87
2022/03/16 15:00:39;;;;;;;21.58;13.45;;;13.60;85.90;;;;;;5084922;28;20044;-88
2022/03/16 15:03:08;;;;;;;23.10;14.65;;;13.50;87.10;;;;;;5088305;28;20491;-88
2022/03/16 15:05:34;;;;;;;23.58;14.68;;;14.40;86.10;;;;;;5090144;28;20051;-89
2022/03/16 15:08:18;;;;;;;21.58;14.85;;;13.50;86.90;;;;;;5089640;28;20044;-87
2022/03/16 15:10:44;;;;;;;22.00;13.68;;;14.40;84.80;;;;;;5089832;28;20117;-88
2022/03/16 15:13:19;;;;;;;21.50;14.05;;;13.50;85.70;;;;;;5092181;28;20039;-89
2022/03/16 15:15:45;;;;;;;25.40;14.80;;;13.80;85.00;;;;;;5095019;28;20127;-91
2022/03/16 15:18:10;;;;;;;27.77;13.98;;;14.50;86.20;;;;;;5099151;28;20067;-92
2022/03/16 15:20:42;;;;;;;24.63;13.98;;;13.40;86.10;;;;;;5095356;28;20032;-91
2022/03/16 15:23:08;;;;;;;23.55;14.55;;;13.50;85.80;;;;;;5084291;28;20084;-92
2022/03/16 15:25:47;;;;;;;21.73;14.32;;;13.40;85.70;;;;;;5093440;28;20044;-91
2022/03/16 15:28:24;;;;;;;25.13;14.48;;;13.30;86.80;;;;;;5071924;28;20594;-93
2022/03/16 15:30:50;;;;;;;21.73;13.63;;;13.40;86.80;;;;;;5088857;28;20036;-84
2022/03/16 15:33:16;;;;;;;22.67;15.27;;;13.40;88.00;;;;;;5093139;28;20535;-88
2022/03/16 15:35:42;;;;;;;25.65;14.65;;;13.20;87.80;;;;;;5133812;22;20475;-89
2022/03/16 15:38:07;;;;;;;23.98;15.18;;;13.40;88.40;;;;;;5070969;28;20083;-91
2022/03/16 15:43:17;;;;;;;23.10;14.85;;;13.30;88.30;;;;;;5067658;28;20049;-86
2022/03/16 15:45:43;;;;;;;23.27;14.75;;;13.20;87.70;;;;;;5065294;28;20052;-88
2022/03/16 15:48:10;;;;;;;25.38;14.45;;;13.20;88.60;;;;;;5065150;28;20048;-88
2022/03/16 15:50:36;;;;;;;26.67;14.93;;;13.20;89.90;;;;;;5063113;28;20519;-94
2022/03/16 15:53:01;;;;;;;24.13;14.82;;;13.20;90.30;;;;;;5067061;28;20123;-88
2022/03/16 15:55:37;;;;;;;24.52;14.75;;;13.10;90.40;;;;;;5069051;28;20048;-91
2022/03/16 15:58:03;;;;;;;21.42;14.23;;;13.10;90.50;;;;;;5067453;28;20056;-90
2022/03/16 16:00:31;;;;;;;53.88;32.30;;;13.10;90.80;;;;;;5073474;28;20036;-87
2022/03/16 16:02:57;;;;;;;25.35;15.05;;;13.10;90.80;;;;;;5081286;28;20053;-87
2022/03/16 16:05:28;;;;;;;34.67;19.52;;;13.10;91.30;;;;;;5072139;28;20090;-92
2022/03/16 16:07:54;;;;;;;24.45;14.63;;;13.00;91.80;;;;;;5065367;28;20115;-92
2022/03/16 16:10:21;;;;;;;24.77;15.38;;;13.40;92.40;;;;;;5046716;28;20496;-92